sensor_id;sensor_type;location;lat;lon;timestamp;P1;durP1;ratioP1;P2;durP2;ratioP2
313;SDS011;143;51.634;7.112;2022-11-24T00:01:24;22.60;;;4.50;;
313;SDS011;143;51.634;7.112;2022-11-24T00:03:52;22.30;;;5.70;;
313;SDS011;143;51.634;7.112;2022-11-24T00:06:20;14.30;;;5.03;;
313;SDS011;143;51.634;7.112;2022-11-24T00:08:45;28.43;;;4.70;;
313;SDS011;143;51.634;7.112;2022-11-24T00:11:13;38.97;;;5.20;;
313;SDS011;143;51.634;7.112;2022-11-24T00:13:44;23.83;;;4.67;;
313;SDS011;143;51.634;7.112;2022-11-24T00:16:23;20.77;;;5.20;;
313;SDS011;143;51.634;7.112;2022-11-24T00:18:50;21.67;;;4.60;;
313;SDS011;143;51.634;7.112;2022-11-24T00:21:18;27.23;;;4.13;;
313;SDS011;143;51.634;7.112;2022-11-24T00:23:45;17.97;;;3.87;;
313;SDS011;143;51.634;7.112;2022-11-24T00:26:12;18.87;;;5.27;;
313;SDS011;143;51.634;7.112;2022-11-24T00:28:40;19.10;;;4.87;;
313;SDS011;143;51.634;7.112;2022-11-24T00:31:17;28.80;;;4.00;;
313;SDS011;143;51.634;7.112;2022-11-24T00:33:44;22.73;;;4.30;;
313;SDS011;143;51.634;7.112;2022-11-24T00:36:10;30.63;;;5.10;;
313;SDS011;143;51.634;7.112;2022-11-24T00:38:36;19.23;;;4.70;;
313;SDS011;143;51.634;7.112;2022-11-24T00:41:02;24.27;;;4.17;;
313;SDS011;143;51.634;7.112;2022-11-24T00:43:28;30.13;;;4.27;;
313;SDS011;143;51.634;7.112;2022-11-24T00:45:53;32.03;;;4.87;;
313;SDS011;143;51.634;7.112;2022-11-24T00:48:19;23.93;;;4.80;;
313;SDS011;143;51.634;7.112;2022-11-24T00:50:54;18.40;;;5.73;;
313;SDS011;143;51.634;7.112;2022-11-24T00:53:23;21.00;;;5.00;;
313;SDS011;143;51.634;7.112;2022-11-24T00:55:50;18.17;;;4.40;;
313;SDS011;143;51.634;7.112;2022-11-24T00:58:16;17.27;;;3.90;;
313;SDS011;143;51.634;7.112;2022-11-24T01:00:42;18.03;;;4.27;;
313;SDS011;143;51.634;7.112;2022-11-24T01:03:08;23.77;;;5.77;;
313;SDS011;143;51.634;7.112;2022-11-24T01:05:37;18.47;;;4.90;;
313;SDS011;143;51.634;7.112;2022-11-24T01:08:04;13.27;;;3.13;;
313;SDS011;143;51.634;7.112;2022-11-24T01:10:30;15.70;;;4.03;;
313;SDS011;143;51.634;7.112;2022-11-24T01:12:57;16.17;;;4.13;;
313;SDS011;143;51.634;7.112;2022-11-24T01:15:23;26.57;;;5.00;;
313;SDS011;143;51.634;7.112;2022-11-24T01:17:49;27.03;;;3.67;;
313;SDS011;143;51.634;7.112;2022-11-24T01:20:15;24.87;;;5.57;;
313;SDS011;143;51.634;7.112;2022-11-24T01:22:41;25.10;;;5.60;;
313;SDS011;143;51.634;7.112;2022-11-24T01:25:10;16.47;;;3.43;;
313;SDS011;143;51.634;7.112;2022-11-24T01:27:36;18.07;;;4.83;;
313;SDS011;143;51.634;7.112;2022-11-24T01:30:03;31.13;;;3.77;;
313;SDS011;143;51.634;7.112;2022-11-24T01:32:30;13.20;;;3.97;;
313;SDS011;143;51.634;7.112;2022-11-24T01:34:57;28.93;;;4.10;;
313;SDS011;143;51.634;7.112;2022-11-24T01:37:23;30.73;;;3.97;;
313;SDS011;143;51.634;7.112;2022-11-24T01:39:49;17.40;;;4.20;;
313;SDS011;143;51.634;7.112;2022-11-24T01:42:15;32.73;;;4.13;;
313;SDS011;143;51.634;7.112;2022-11-24T01:44:41;11.47;;;3.90;;
313;SDS011;143;51.634;7.112;2022-11-24T01:49:45;25.43;;;3.70;;
313;SDS011;143;51.634;7.112;2022-11-24T01:52:20;23.93;;;3.70;;
313;SDS011;143;51.634;7.112;2022-11-24T01:54:57;28.80;;;4.80;;
313;SDS011;143;51.634;7.112;2022-11-24T01:57:31;24.23;;;3.80;;
313;SDS011;143;51.634;7.112;2022-11-24T02:00:04;21.33;;;4.43;;
313;SDS011;143;51.634;7.112;2022-11-24T02:02:33;16.00;;;3.63;;
313;SDS011;143;51.634;7.112;2022-11-24T02:05:00;19.70;;;3.83;;
313;SDS011;143;51.634;7.112;2022-11-24T02:07:29;11.77;;;3.90;;
313;SDS011;143;51.634;7.112;2022-11-24T02:10:00;23.10;;;3.97;;
313;SDS011;143;51.634;7.112;2022-11-24T02:12:28;20.90;;;3.87;;
313;SDS011;143;51.634;7.112;2022-11-24T02:14:55;17.27;;;3.83;;
313;SDS011;143;51.634;7.112;2022-11-24T02:17:22;22.83;;;3.93;;
313;SDS011;143;51.634;7.112;2022-11-24T02:19:55;21.70;;;3.63;;
313;SDS011;143;51.634;7.112;2022-11-24T02:28:01;17.13;;;3.47;;
313;SDS011;143;51.634;7.112;2022-11-24T02:30:31;19.03;;;4.40;;
313;SDS011;143;51.634;7.112;2022-11-24T02:32:58;21.27;;;3.20;;
313;SDS011;143;51.634;7.112;2022-11-24T02:35:25;23.67;;;4.83;;
313;SDS011;143;51.634;7.112;2022-11-24T02:37:52;32.50;;;4.47;;
313;SDS011;143;51.634;7.112;2022-11-24T02:40:19;15.43;;;4.17;;
313;SDS011;143;51.634;7.112;2022-11-24T02:42:54;25.63;;;3.87;;
313;SDS011;143;51.634;7.112;2022-11-24T02:45:22;22.07;;;3.97;;
313;SDS011;143;51.634;7.112;2022-11-24T02:47:50;23.63;;;4.20;;
313;SDS011;143;51.634;7.112;2022-11-24T02:50:16;19.57;;;3.93;;
313;SDS011;143;51.634;7.112;2022-11-24T02:52:41;20.27;;;3.80;;
313;SDS011;143;51.634;7.112;2022-11-24T02:55:07;21.87;;;3.70;;
313;SDS011;143;51.634;7.112;2022-11-24T02:57:33;25.93;;;4.00;;
313;SDS011;143;51.634;7.112;2022-11-24T02:59:59;17.97;;;3.33;;
313;SDS011;143;51.634;7.112;2022-11-24T03:02:25;30.33;;;5.40;;
313;SDS011;143;51.634;7.112;2022-11-24T03:04:50;19.90;;;3.73;;
313;SDS011;143;51.634;7.112;2022-11-24T03:07:16;29.00;;;3.80;;
313;SDS011;143;51.634;7.112;2022-11-24T03:09:42;30.70;;;4.73;;
313;SDS011;143;51.634;7.112;2022-11-24T03:12:08;16.80;;;3.63;;
313;SDS011;143;51.634;7.112;2022-11-24T03:14:33;28.33;;;4.17;;
313;SDS011;143;51.634;7.112;2022-11-24T03:16:59;21.43;;;5.00;;
313;SDS011;143;51.634;7.112;2022-11-24T03:19:25;19.23;;;4.13;;
313;SDS011;143;51.634;7.112;2022-11-24T03:21:50;21.87;;;4.43;;
313;SDS011;143;51.634;7.112;2022-11-24T03:24:16;18.73;;;3.30;;
313;SDS011;143;51.634;7.112;2022-11-24T03:26:42;15.23;;;3.80;;
313;SDS011;143;51.634;7.112;2022-11-24T03:29:07;25.67;;;4.47;;
313;SDS011;143;51.634;7.112;2022-11-24T03:31:33;26.33;;;4.10;;
313;SDS011;143;51.634;7.112;2022-11-24T03:33:59;24.50;;;4.00;;
313;SDS011;143;51.634;7.112;2022-11-24T03:36:25;16.40;;;3.60;;
313;SDS011;143;51.634;7.112;2022-11-24T03:38:51;22.60;;;4.57;;
313;SDS011;143;51.634;7.112;2022-11-24T03:41:17;22.53;;;3.40;;
313;SDS011;143;51.634;7.112;2022-11-24T03:43:42;20.57;;;4.70;;
313;SDS011;143;51.634;7.112;2022-11-24T03:46:08;34.50;;;4.57;;
313;SDS011;143;51.634;7.112;2022-11-24T03:48:34;24.53;;;4.73;;
313;SDS011;143;51.634;7.112;2022-11-24T03:51:00;30.73;;;5.23;;
313;SDS011;143;51.634;7.112;2022-11-24T03:53:28;20.03;;;4.60;;
313;SDS011;143;51.634;7.112;2022-11-24T03:55:55;23.37;;;5.60;;
313;SDS011;143;51.634;7.112;2022-11-24T03:58:22;22.20;;;4.80;;
313;SDS011;143;51.634;7.112;2022-11-24T04:00:48;31.00;;;3.57;;
313;SDS011;143;51.634;7.112;2022-11-24T04:03:15;17.57;;;3.80;;
313;SDS011;143;51.634;7.112;2022-11-24T04:05:41;25.20;;;3.70;;
313;SDS011;143;51.634;7.112;2022-11-24T04:08:07;18.17;;;4.73;;
313;SDS011;143;51.634;7.112;2022-11-24T04:10:34;32.37;;;3.30;;
313;SDS011;143;51.634;7.112;2022-11-24T04:13:02;21.60;;;4.43;;
313;SDS011;143;51.634;7.112;2022-11-24T04:15:29;26.63;;;4.23;;
313;SDS011;143;51.634;7.112;2022-11-24T04:17:55;19.80;;;3.60;;
313;SDS011;143;51.634;7.112;2022-11-24T04:20:22;19.50;;;4.10;;
313;SDS011;143;51.634;7.112;2022-11-24T04:22:50;33.20;;;5.50;;
313;SDS011;143;51.634;7.112;2022-11-24T04:25:16;26.43;;;4.00;;
313;SDS011;143;51.634;7.112;2022-11-24T04:27:42;19.97;;;4.70;;
313;SDS011;143;51.634;7.112;2022-11-24T04:30:08;20.27;;;3.77;;
313;SDS011;143;51.634;7.112;2022-11-24T04:32:34;17.97;;;3.10;;
313;SDS011;143;51.634;7.112;2022-11-24T04:35:00;16.00;;;4.30;;
313;SDS011;143;51.634;7.112;2022-11-24T04:37:26;23.37;;;3.50;;
313;SDS011;143;51.634;7.112;2022-11-24T04:39:52;21.07;;;3.53;;
313;SDS011;143;51.634;7.112;2022-11-24T04:42:19;28.30;;;4.47;;
313;SDS011;143;51.634;7.112;2022-11-24T04:44:45;28.43;;;5.20;;
313;SDS011;143;51.634;7.112;2022-11-24T04:47:17;27.57;;;4.63;;
313;SDS011;143;51.634;7.112;2022-11-24T04:49:46;22.90;;;3.97;;
313;SDS011;143;51.634;7.112;2022-11-24T04:52:13;15.27;;;4.43;;
313;SDS011;143;51.634;7.112;2022-11-24T04:54:39;22.50;;;4.17;;
313;SDS011;143;51.634;7.112;2022-11-24T04:57:05;23.57;;;5.23;;
313;SDS011;143;51.634;7.112;2022-11-24T04:59:30;28.27;;;4.87;;
313;SDS011;143;51.634;7.112;2022-11-24T05:01:56;23.03;;;4.73;;
313;SDS011;143;51.634;7.112;2022-11-24T05:04:22;27.73;;;5.87;;
313;SDS011;143;51.634;7.112;2022-11-24T05:06:47;23.53;;;5.57;;
313;SDS011;143;51.634;7.112;2022-11-24T05:09:14;25.37;;;4.67;;
313;SDS011;143;51.634;7.112;2022-11-24T05:11:41;23.13;;;3.90;;
313;SDS011;143;51.634;7.112;2022-11-24T05:14:07;32.60;;;5.43;;
313;SDS011;143;51.634;7.112;2022-11-24T05:16:33;26.53;;;4.20;;
313;SDS011;143;51.634;7.112;2022-11-24T05:18:59;36.13;;;6.60;;
313;SDS011;143;51.634;7.112;2022-11-24T05:21:26;12.27;;;3.90;;
313;SDS011;143;51.634;7.112;2022-11-24T05:23:52;39.10;;;5.80;;
313;SDS011;143;51.634;7.112;2022-11-24T05:26:17;37.17;;;5.90;;
313;SDS011;143;51.634;7.112;2022-11-24T05:28:43;22.10;;;3.80;;
313;SDS011;143;51.634;7.112;2022-11-24T05:31:09;32.63;;;5.23;;
313;SDS011;143;51.634;7.112;2022-11-24T05:33:34;32.37;;;4.70;;
313;SDS011;143;51.634;7.112;2022-11-24T05:36:04;21.43;;;4.87;;
313;SDS011;143;51.634;7.112;2022-11-24T05:38:31;22.53;;;4.77;;
313;SDS011;143;51.634;7.112;2022-11-24T05:41:01;33.50;;;5.13;;
313;SDS011;143;51.634;7.112;2022-11-24T05:43:28;30.57;;;4.97;;
313;SDS011;143;51.634;7.112;2022-11-24T05:45:54;24.90;;;4.17;;
313;SDS011;143;51.634;7.112;2022-11-24T05:48:22;40.07;;;6.07;;
313;SDS011;143;51.634;7.112;2022-11-24T05:50:54;25.23;;;5.30;;
313;SDS011;143;51.634;7.112;2022-11-24T05:53:20;20.33;;;4.50;;
313;SDS011;143;51.634;7.112;2022-11-24T05:55:47;31.77;;;4.40;;
313;SDS011;143;51.634;7.112;2022-11-24T05:58:12;28.03;;;5.10;;
313;SDS011;143;51.634;7.112;2022-11-24T06:00:38;31.77;;;4.63;;
313;SDS011;143;51.634;7.112;2022-11-24T06:03:04;21.77;;;3.67;;
313;SDS011;143;51.634;7.112;2022-11-24T06:05:30;41.23;;;5.10;;
313;SDS011;143;51.634;7.112;2022-11-24T06:07:57;27.93;;;5.17;;
313;SDS011;143;51.634;7.112;2022-11-24T06:10:23;25.93;;;5.20;;
313;SDS011;143;51.634;7.112;2022-11-24T06:12:49;32.23;;;4.70;;
313;SDS011;143;51.634;7.112;2022-11-24T06:15:15;28.47;;;4.10;;
313;SDS011;143;51.634;7.112;2022-11-24T06:17:41;30.80;;;4.67;;
313;SDS011;143;51.634;7.112;2022-11-24T06:20:08;27.93;;;5.43;;
313;SDS011;143;51.634;7.112;2022-11-24T06:22:35;27.73;;;5.60;;
313;SDS011;143;51.634;7.112;2022-11-24T06:25:01;24.03;;;3.83;;
313;SDS011;143;51.634;7.112;2022-11-24T06:27:27;20.03;;;3.90;;
313;SDS011;143;51.634;7.112;2022-11-24T06:29:53;32.07;;;4.10;;
313;SDS011;143;51.634;7.112;2022-11-24T06:32:18;23.43;;;4.60;;
313;SDS011;143;51.634;7.112;2022-11-24T06:34:44;30.00;;;4.13;;
313;SDS011;143;51.634;7.112;2022-11-24T06:37:10;29.20;;;5.10;;
313;SDS011;143;51.634;7.112;2022-11-24T06:39:36;25.43;;;5.13;;
313;SDS011;143;51.634;7.112;2022-11-24T06:42:01;29.73;;;5.10;;
313;SDS011;143;51.634;7.112;2022-11-24T06:44:27;27.93;;;3.90;;
313;SDS011;143;51.634;7.112;2022-11-24T06:46:53;23.50;;;4.53;;
313;SDS011;143;51.634;7.112;2022-11-24T06:49:19;23.93;;;4.87;;
313;SDS011;143;51.634;7.112;2022-11-24T06:51:44;28.37;;;5.50;;
313;SDS011;143;51.634;7.112;2022-11-24T06:54:13;27.13;;;4.87;;
313;SDS011;143;51.634;7.112;2022-11-24T06:56:39;42.87;;;4.80;;
313;SDS011;143;51.634;7.112;2022-11-24T06:59:05;32.70;;;6.17;;
313;SDS011;143;51.634;7.112;2022-11-24T07:01:31;20.13;;;3.70;;
313;SDS011;143;51.634;7.112;2022-11-24T07:03:56;30.03;;;4.67;;
313;SDS011;143;51.634;7.112;2022-11-24T07:06:23;27.63;;;4.67;;
313;SDS011;143;51.634;7.112;2022-11-24T07:08:50;29.27;;;4.73;;
313;SDS011;143;51.634;7.112;2022-11-24T07:11:18;20.50;;;4.60;;
313;SDS011;143;51.634;7.112;2022-11-24T07:13:45;28.40;;;4.47;;
313;SDS011;143;51.634;7.112;2022-11-24T07:16:16;39.37;;;6.57;;
313;SDS011;143;51.634;7.112;2022-11-24T07:18:43;32.33;;;5.03;;
313;SDS011;143;51.634;7.112;2022-11-24T07:21:10;20.00;;;4.73;;
313;SDS011;143;51.634;7.112;2022-11-24T07:23:36;30.30;;;4.00;;
313;SDS011;143;51.634;7.112;2022-11-24T07:26:05;32.50;;;4.33;;
313;SDS011;143;51.634;7.112;2022-11-24T07:28:32;30.17;;;5.73;;
313;SDS011;143;51.634;7.112;2022-11-24T07:30:58;34.60;;;6.00;;
313;SDS011;143;51.634;7.112;2022-11-24T07:33:28;20.20;;;3.37;;
313;SDS011;143;51.634;7.112;2022-11-24T07:35:54;17.13;;;4.00;;
313;SDS011;143;51.634;7.112;2022-11-24T07:38:24;28.83;;;4.70;;
313;SDS011;143;51.634;7.112;2022-11-24T07:40:49;28.23;;;5.00;;
313;SDS011;143;51.634;7.112;2022-11-24T07:43:15;44.53;;;5.20;;
313;SDS011;143;51.634;7.112;2022-11-24T07:45:41;34.93;;;4.17;;
313;SDS011;143;51.634;7.112;2022-11-24T07:48:07;21.50;;;4.23;;
313;SDS011;143;51.634;7.112;2022-11-24T07:50:32;22.93;;;4.20;;
313;SDS011;143;51.634;7.112;2022-11-24T07:53:02;21.30;;;4.20;;
313;SDS011;143;51.634;7.112;2022-11-24T07:55:28;19.77;;;4.20;;
313;SDS011;143;51.634;7.112;2022-11-24T07:57:57;14.10;;;3.20;;
313;SDS011;143;51.634;7.112;2022-11-24T08:00:23;19.00;;;3.83;;
313;SDS011;143;51.634;7.112;2022-11-24T08:02:49;24.47;;;3.93;;
313;SDS011;143;51.634;7.112;2022-11-24T08:05:14;10.10;;;3.20;;
313;SDS011;143;51.634;7.112;2022-11-24T08:07:40;22.70;;;3.50;;
313;SDS011;143;51.634;7.112;2022-11-24T08:10:06;14.47;;;3.60;;
313;SDS011;143;51.634;7.112;2022-11-24T08:12:32;17.70;;;3.17;;
313;SDS011;143;51.634;7.112;2022-11-24T08:14:57;22.30;;;3.43;;
313;SDS011;143;51.634;7.112;2022-11-24T08:17:23;12.67;;;3.17;;
313;SDS011;143;51.634;7.112;2022-11-24T08:19:49;16.70;;;3.97;;
313;SDS011;143;51.634;7.112;2022-11-24T08:22:15;24.73;;;3.47;;
313;SDS011;143;51.634;7.112;2022-11-24T08:24:41;16.90;;;3.03;;
313;SDS011;143;51.634;7.112;2022-11-24T08:27:11;19.37;;;3.60;;
313;SDS011;143;51.634;7.112;2022-11-24T08:29:38;15.63;;;4.00;;
313;SDS011;143;51.634;7.112;2022-11-24T08:32:04;13.10;;;2.40;;
313;SDS011;143;51.634;7.112;2022-11-24T08:34:30;7.20;;;2.57;;
313;SDS011;143;51.634;7.112;2022-11-24T08:36:55;15.70;;;4.37;;
313;SDS011;143;51.634;7.112;2022-11-24T08:39:21;13.90;;;3.20;;
313;SDS011;143;51.634;7.112;2022-11-24T08:41:47;14.50;;;3.40;;
313;SDS011;143;51.634;7.112;2022-11-24T08:44:12;10.40;;;2.60;;
313;SDS011;143;51.634;7.112;2022-11-24T08:46:40;7.37;;;2.50;;
313;SDS011;143;51.634;7.112;2022-11-24T08:49:05;8.10;;;2.50;;
313;SDS011;143;51.634;7.112;2022-11-24T08:51:32;12.70;;;2.47;;
313;SDS011;143;51.634;7.112;2022-11-24T08:53:58;12.50;;;2.70;;
313;SDS011;143;51.634;7.112;2022-11-24T08:56:26;6.73;;;2.43;;
313;SDS011;143;51.634;7.112;2022-11-24T08:58:53;8.90;;;2.53;;
313;SDS011;143;51.634;7.112;2022-11-24T09:01:19;11.93;;;2.00;;
313;SDS011;143;51.634;7.112;2022-11-24T09:03:46;12.37;;;2.97;;
313;SDS011;143;51.634;7.112;2022-11-24T09:06:13;5.60;;;1.67;;
313;SDS011;143;51.634;7.112;2022-11-24T09:08:40;6.87;;;2.40;;
313;SDS011;143;51.634;7.112;2022-11-24T09:11:07;18.20;;;2.40;;
313;SDS011;143;51.634;7.112;2022-11-24T09:13:34;14.03;;;2.63;;
313;SDS011;143;51.634;7.112;2022-11-24T09:16:01;9.03;;;2.20;;
313;SDS011;143;51.634;7.112;2022-11-24T09:18:28;9.00;;;2.27;;
313;SDS011;143;51.634;7.112;2022-11-24T09:20:54;9.83;;;2.60;;
313;SDS011;143;51.634;7.112;2022-11-24T09:23:29;7.03;;;2.63;;
313;SDS011;143;51.634;7.112;2022-11-24T09:26:01;17.53;;;3.00;;
313;SDS011;143;51.634;7.112;2022-11-24T09:28:35;11.83;;;3.03;;
313;SDS011;143;51.634;7.112;2022-11-24T09:31:05;8.50;;;2.57;;
313;SDS011;143;51.634;7.112;2022-11-24T09:33:33;6.87;;;2.67;;
313;SDS011;143;51.634;7.112;2022-11-24T09:35:59;9.70;;;2.60;;
313;SDS011;143;51.634;7.112;2022-11-24T09:38:25;7.43;;;2.50;;
313;SDS011;143;51.634;7.112;2022-11-24T09:40:51;6.80;;;2.33;;
313;SDS011;143;51.634;7.112;2022-11-24T09:45:54;8.73;;;2.63;;
313;SDS011;143;51.634;7.112;2022-11-24T09:48:31;9.37;;;2.87;;
313;SDS011;143;51.634;7.112;2022-11-24T09:51:02;13.17;;;2.70;;
313;SDS011;143;51.634;7.112;2022-11-24T09:53:36;9.13;;;2.50;;
313;SDS011;143;51.634;7.112;2022-11-24T09:56:23;14.53;;;2.90;;
313;SDS011;143;51.634;7.112;2022-11-24T10:01:27;12.43;;;2.53;;
313;SDS011;143;51.634;7.112;2022-11-24T10:03:54;10.30;;;3.10;;
313;SDS011;143;51.634;7.112;2022-11-24T10:06:27;11.67;;;2.60;;
313;SDS011;143;51.634;7.112;2022-11-24T10:12:04;14.23;;;2.93;;
313;SDS011;143;51.634;7.112;2022-11-24T10:14:40;16.73;;;2.97;;
313;SDS011;143;51.634;7.112;2022-11-24T10:25:12;8.67;;;3.40;;
313;SDS011;143;51.634;7.112;2022-11-24T10:27:57;18.63;;;3.20;;
313;SDS011;143;51.634;7.112;2022-11-24T10:30:27;13.30;;;4.00;;
313;SDS011;143;51.634;7.112;2022-11-24T10:35:52;10.67;;;3.03;;
313;SDS011;143;51.634;7.112;2022-11-24T10:38:31;14.17;;;2.77;;
313;SDS011;143;51.634;7.112;2022-11-24T10:43:43;10.13;;;2.50;;
313;SDS011;143;51.634;7.112;2022-11-24T10:46:10;22.10;;;3.60;;
313;SDS011;143;51.634;7.112;2022-11-24T10:48:42;20.97;;;3.57;;
313;SDS011;143;51.634;7.112;2022-11-24T10:51:37;15.97;;;3.20;;
313;SDS011;143;51.634;7.112;2022-11-24T10:54:25;14.43;;;3.63;;
313;SDS011;143;51.634;7.112;2022-11-24T10:56:51;11.97;;;3.60;;
313;SDS011;143;51.634;7.112;2022-11-24T10:59:27;17.83;;;3.60;;
313;SDS011;143;51.634;7.112;2022-11-24T11:02:01;13.17;;;3.47;;
313;SDS011;143;51.634;7.112;2022-11-24T11:04:47;16.67;;;3.60;;
313;SDS011;143;51.634;7.112;2022-11-24T11:07:18;13.50;;;3.90;;
313;SDS011;143;51.634;7.112;2022-11-24T11:09:46;10.27;;;2.90;;
313;SDS011;143;51.634;7.112;2022-11-24T11:12:21;25.73;;;3.53;;
313;SDS011;143;51.634;7.112;2022-11-24T11:14:51;17.83;;;3.50;;
313;SDS011;143;51.634;7.112;2022-11-24T11:17:54;13.17;;;3.60;;
313;SDS011;143;51.634;7.112;2022-11-24T11:20:16;21.40;;;4.40;;
313;SDS011;143;51.634;7.112;2022-11-24T11:22:48;19.53;;;2.90;;
313;SDS011;143;51.634;7.112;2022-11-24T11:27:46;16.03;;;4.90;;
313;SDS011;143;51.634;7.112;2022-11-24T11:30:17;9.10;;;3.30;;
313;SDS011;143;51.634;7.112;2022-11-24T11:32:56;15.43;;;3.77;;
313;SDS011;143;51.634;7.112;2022-11-24T11:35:26;14.63;;;3.70;;
313;SDS011;143;51.634;7.112;2022-11-24T11:37:54;18.97;;;3.83;;
313;SDS011;143;51.634;7.112;2022-11-24T11:40:26;13.80;;;3.57;;
313;SDS011;143;51.634;7.112;2022-11-24T11:42:55;18.07;;;4.20;;
313;SDS011;143;51.634;7.112;2022-11-24T11:45:33;18.83;;;3.17;;
313;SDS011;143;51.634;7.112;2022-11-24T12:15:02;9.87;;;2.60;;
313;SDS011;143;51.634;7.112;2022-11-24T12:35:55;11.23;;;1.70;;
313;SDS011;143;51.634;7.112;2022-11-24T12:43:37;11.50;;;2.93;;
313;SDS011;143;51.634;7.112;2022-11-24T12:51:31;18.47;;;3.03;;
313;SDS011;143;51.634;7.112;2022-11-24T12:54:02;10.67;;;3.10;;
313;SDS011;143;51.634;7.112;2022-11-24T13:02:10;13.80;;;3.50;;
313;SDS011;143;51.634;7.112;2022-11-24T13:07:45;12.63;;;2.50;;
313;SDS011;143;51.634;7.112;2022-11-24T13:13:14;14.03;;;3.07;;
313;SDS011;143;51.634;7.112;2022-11-24T13:21:29;14.17;;;2.73;;
313;SDS011;143;51.634;7.112;2022-11-24T13:24:04;14.40;;;4.30;;
313;SDS011;143;51.634;7.112;2022-11-24T13:26:45;16.93;;;3.73;;
313;SDS011;143;51.634;7.112;2022-11-24T13:29:32;10.53;;;3.20;;
313;SDS011;143;51.634;7.112;2022-11-24T13:37:16;24.27;;;3.77;;
313;SDS011;143;51.634;7.112;2022-11-24T13:42:23;17.10;;;3.27;;
313;SDS011;143;51.634;7.112;2022-11-24T13:44:54;15.40;;;4.00;;
313;SDS011;143;51.634;7.112;2022-11-24T13:49:54;15.13;;;3.53;;
313;SDS011;143;51.634;7.112;2022-11-24T13:55:23;14.70;;;2.70;;
313;SDS011;143;51.634;7.112;2022-11-24T14:03:24;12.03;;;4.47;;
313;SDS011;143;51.634;7.112;2022-11-24T14:05:53;14.53;;;3.80;;
313;SDS011;143;51.634;7.112;2022-11-24T14:08:29;11.83;;;3.30;;
313;SDS011;143;51.634;7.112;2022-11-24T14:10:57;15.60;;;3.63;;
313;SDS011;143;51.634;7.112;2022-11-24T14:13:26;23.80;;;3.10;;
313;SDS011;143;51.634;7.112;2022-11-24T14:15:57;11.87;;;3.40;;
313;SDS011;143;51.634;7.112;2022-11-24T14:18:29;16.13;;;3.67;;
313;SDS011;143;51.634;7.112;2022-11-24T14:20:56;10.10;;;2.40;;
313;SDS011;143;51.634;7.112;2022-11-24T14:23:23;19.13;;;3.20;;
313;SDS011;143;51.634;7.112;2022-11-24T14:25:49;25.43;;;4.57;;
313;SDS011;143;51.634;7.112;2022-11-24T14:28:23;20.90;;;3.13;;
313;SDS011;143;51.634;7.112;2022-11-24T14:31:05;17.90;;;3.10;;
313;SDS011;143;51.634;7.112;2022-11-24T14:33:32;18.03;;;3.60;;
313;SDS011;143;51.634;7.112;2022-11-24T14:35:58;20.70;;;3.90;;
313;SDS011;143;51.634;7.112;2022-11-24T14:38:23;18.00;;;4.90;;
313;SDS011;143;51.634;7.112;2022-11-24T14:40:50;18.83;;;4.47;;
313;SDS011;143;51.634;7.112;2022-11-24T14:43:18;17.00;;;3.93;;
313;SDS011;143;51.634;7.112;2022-11-24T14:45:58;18.07;;;3.43;;
313;SDS011;143;51.634;7.112;2022-11-24T14:48:45;22.20;;;4.00;;
313;SDS011;143;51.634;7.112;2022-11-24T14:51:25;24.10;;;3.70;;
313;SDS011;143;51.634;7.112;2022-11-24T14:53:58;27.57;;;3.87;;
313;SDS011;143;51.634;7.112;2022-11-24T14:56:35;35.23;;;4.63;;
313;SDS011;143;51.634;7.112;2022-11-24T14:59:03;20.40;;;4.33;;
313;SDS011;143;51.634;7.112;2022-11-24T15:01:46;25.20;;;5.30;;
313;SDS011;143;51.634;7.112;2022-11-24T15:04:16;17.03;;;3.50;;
313;SDS011;143;51.634;7.112;2022-11-24T15:06:47;21.93;;;3.33;;
313;SDS011;143;51.634;7.112;2022-11-24T15:12:04;13.83;;;3.50;;
313;SDS011;143;51.634;7.112;2022-11-24T15:14:38;14.20;;;2.70;;
313;SDS011;143;51.634;7.112;2022-11-24T15:17:04;25.13;;;3.23;;
313;SDS011;143;51.634;7.112;2022-11-24T15:19:31;19.73;;;3.70;;
313;SDS011;143;51.634;7.112;2022-11-24T15:21:58;15.67;;;3.50;;
313;SDS011;143;51.634;7.112;2022-11-24T15:24:24;21.50;;;3.67;;
313;SDS011;143;51.634;7.112;2022-11-24T15:26:56;16.07;;;3.40;;
313;SDS011;143;51.634;7.112;2022-11-24T15:29:23;12.80;;;2.97;;
313;SDS011;143;51.634;7.112;2022-11-24T15:31:48;14.60;;;3.73;;
313;SDS011;143;51.634;7.112;2022-11-24T15:34:14;15.63;;;3.13;;
313;SDS011;143;51.634;7.112;2022-11-24T15:36:40;12.80;;;3.30;;
313;SDS011;143;51.634;7.112;2022-11-24T15:39:05;19.50;;;3.20;;
313;SDS011;143;51.634;7.112;2022-11-24T15:41:31;18.67;;;3.67;;
313;SDS011;143;51.634;7.112;2022-11-24T15:43:57;21.60;;;3.50;;
313;SDS011;143;51.634;7.112;2022-11-24T15:46:27;15.77;;;3.10;;
313;SDS011;143;51.634;7.112;2022-11-24T15:48:54;14.80;;;3.40;;
313;SDS011;143;51.634;7.112;2022-11-24T15:51:20;21.77;;;3.70;;
313;SDS011;143;51.634;7.112;2022-11-24T15:53:52;14.97;;;3.77;;
313;SDS011;143;51.634;7.112;2022-11-24T15:58:46;19.43;;;3.80;;
313;SDS011;143;51.634;7.112;2022-11-24T16:01:12;14.70;;;3.10;;
313;SDS011;143;51.634;7.112;2022-11-24T16:03:38;11.67;;;2.90;;
313;SDS011;143;51.634;7.112;2022-11-24T16:06:03;26.67;;;3.97;;
313;SDS011;143;51.634;7.112;2022-11-24T16:08:29;21.67;;;3.90;;
313;SDS011;143;51.634;7.112;2022-11-24T16:10:55;18.40;;;5.00;;
313;SDS011;143;51.634;7.112;2022-11-24T16:13:21;32.50;;;4.70;;
313;SDS011;143;51.634;7.112;2022-11-24T16:15:46;20.23;;;5.47;;
313;SDS011;143;51.634;7.112;2022-11-24T16:18:13;28.20;;;5.57;;
313;SDS011;143;51.634;7.112;2022-11-24T16:20:39;20.27;;;4.60;;
313;SDS011;143;51.634;7.112;2022-11-24T16:23:05;26.40;;;4.37;;
313;SDS011;143;51.634;7.112;2022-11-24T16:25:31;18.63;;;4.57;;
313;SDS011;143;51.634;7.112;2022-11-24T16:27:57;53.37;;;6.40;;
313;SDS011;143;51.634;7.112;2022-11-24T16:30:22;23.27;;;4.67;;
313;SDS011;143;51.634;7.112;2022-11-24T16:32:48;22.07;;;4.50;;
313;SDS011;143;51.634;7.112;2022-11-24T16:35:14;23.90;;;4.43;;
313;SDS011;143;51.634;7.112;2022-11-24T16:37:40;30.67;;;5.27;;
313;SDS011;143;51.634;7.112;2022-11-24T16:40:05;16.93;;;4.37;;
313;SDS011;143;51.634;7.112;2022-11-24T16:42:32;26.40;;;5.43;;
313;SDS011;143;51.634;7.112;2022-11-24T16:44:57;37.07;;;5.57;;
313;SDS011;143;51.634;7.112;2022-11-24T16:47:23;22.90;;;4.77;;
313;SDS011;143;51.634;7.112;2022-11-24T16:49:48;32.27;;;5.47;;
313;SDS011;143;51.634;7.112;2022-11-24T16:52:14;19.53;;;6.27;;
313;SDS011;143;51.634;7.112;2022-11-24T16:54:40;23.07;;;4.70;;
313;SDS011;143;51.634;7.112;2022-11-24T16:57:06;18.17;;;4.73;;
313;SDS011;143;51.634;7.112;2022-11-24T16:59:33;16.80;;;4.27;;
313;SDS011;143;51.634;7.112;2022-11-24T17:01:58;22.80;;;5.73;;
313;SDS011;143;51.634;7.112;2022-11-24T17:04:24;20.37;;;4.50;;
313;SDS011;143;51.634;7.112;2022-11-24T17:06:50;23.90;;;4.87;;
313;SDS011;143;51.634;7.112;2022-11-24T17:09:16;26.97;;;5.43;;
313;SDS011;143;51.634;7.112;2022-11-24T17:11:43;25.10;;;5.30;;
313;SDS011;143;51.634;7.112;2022-11-24T17:14:09;18.60;;;5.70;;
313;SDS011;143;51.634;7.112;2022-11-24T17:16:35;19.47;;;5.37;;
313;SDS011;143;51.634;7.112;2022-11-24T17:19:02;15.77;;;4.67;;
313;SDS011;143;51.634;7.112;2022-11-24T17:21:29;26.03;;;6.67;;
313;SDS011;143;51.634;7.112;2022-11-24T17:23:57;48.10;;;6.90;;
313;SDS011;143;51.634;7.112;2022-11-24T17:26:24;20.27;;;5.37;;
313;SDS011;143;51.634;7.112;2022-11-24T17:28:51;24.03;;;5.10;;
313;SDS011;143;51.634;7.112;2022-11-24T17:31:27;23.23;;;4.93;;
313;SDS011;143;51.634;7.112;2022-11-24T17:33:56;35.40;;;6.97;;
313;SDS011;143;51.634;7.112;2022-11-24T17:36:23;24.97;;;5.60;;
313;SDS011;143;51.634;7.112;2022-11-24T17:38:49;25.67;;;4.43;;
313;SDS011;143;51.634;7.112;2022-11-24T17:41:16;28.00;;;5.10;;
313;SDS011;143;51.634;7.112;2022-11-24T17:43:42;21.33;;;5.40;;
313;SDS011;143;51.634;7.112;2022-11-24T17:46:08;27.27;;;5.10;;